sensor_id;sensor_type;location;lat;lon;timestamp;P1;durP1;ratioP1;P2;durP2;ratioP2
54599;SDS011;40500;51.084;16.958;2022-12-18T00:01:34;38.70;;;14.00;;
54599;SDS011;40500;51.084;16.958;2022-12-18T00:04:11;32.20;;;11.80;;
54599;SDS011;40500;51.084;16.958;2022-12-18T00:06:46;31.40;;;11.90;;
54599;SDS011;40500;51.084;16.958;2022-12-18T00:09:33;31.30;;;11.80;;
54599;SDS011;40500;51.084;16.958;2022-12-18T00:12:06;24.50;;;11.40;;
54599;SDS011;40500;51.084;16.958;2022-12-18T00:14:41;43.00;;;13.80;;
54599;SDS011;40500;51.084;16.958;2022-12-18T00:17:13;30.30;;;11.90;;
54599;SDS011;40500;51.084;16.958;2022-12-18T00:19:44;33.50;;;11.90;;
54599;SDS011;40500;51.084;16.958;2022-12-18T00:22:23;41.10;;;14.70;;
54599;SDS011;40500;51.084;16.958;2022-12-18T00:24:52;33.20;;;13.30;;
54599;SDS011;40500;51.084;16.958;2022-12-18T00:27:24;31.90;;;13.10;;
54599;SDS011;40500;51.084;16.958;2022-12-18T00:29:51;31.40;;;12.90;;
54599;SDS011;40500;51.084;16.958;2022-12-18T00:32:20;40.20;;;12.90;;
54599;SDS011;40500;51.084;16.958;2022-12-18T00:34:48;30.00;;;11.90;;
54599;SDS011;40500;51.084;16.958;2022-12-18T00:37:16;36.70;;;12.60;;
54599;SDS011;40500;51.084;16.958;2022-12-18T00:39:50;37.10;;;13.20;;
54599;SDS011;40500;51.084;16.958;2022-12-18T00:42:19;33.00;;;11.30;;
54599;SDS011;40500;51.084;16.958;2022-12-18T00:45:06;34.80;;;11.80;;
54599;SDS011;40500;51.084;16.958;2022-12-18T00:47:40;30.50;;;11.10;;
54599;SDS011;40500;51.084;16.958;2022-12-18T00:50:09;35.00;;;12.20;;
54599;SDS011;40500;51.084;16.958;2022-12-18T00:52:38;40.00;;;13.80;;
54599;SDS011;40500;51.084;16.958;2022-12-18T00:55:06;34.10;;;11.90;;
54599;SDS011;40500;51.084;16.958;2022-12-18T00:57:35;27.90;;;11.70;;
54599;SDS011;40500;51.084;16.958;2022-12-18T01:00:03;26.00;;;10.40;;
54599;SDS011;40500;51.084;16.958;2022-12-18T01:02:35;21.20;;;8.70;;
54599;SDS011;40500;51.084;16.958;2022-12-18T01:05:15;31.20;;;11.80;;
54599;SDS011;40500;51.084;16.958;2022-12-18T01:07:44;32.30;;;11.40;;
54599;SDS011;40500;51.084;16.958;2022-12-18T01:10:12;35.90;;;11.00;;
54599;SDS011;40500;51.084;16.958;2022-12-18T01:12:40;26.50;;;10.50;;
54599;SDS011;40500;51.084;16.958;2022-12-18T01:15:10;32.90;;;11.50;;
54599;SDS011;40500;51.084;16.958;2022-12-18T01:17:42;32.80;;;10.50;;
54599;SDS011;40500;51.084;16.958;2022-12-18T01:20:11;33.50;;;11.50;;
54599;SDS011;40500;51.084;16.958;2022-12-18T01:22:40;27.70;;;10.50;;
54599;SDS011;40500;51.084;16.958;2022-12-18T01:25:12;25.60;;;9.80;;
54599;SDS011;40500;51.084;16.958;2022-12-18T01:27:42;27.30;;;10.80;;
54599;SDS011;40500;51.084;16.958;2022-12-18T01:30:14;33.60;;;12.20;;
54599;SDS011;40500;51.084;16.958;2022-12-18T01:32:43;28.70;;;11.50;;
54599;SDS011;40500;51.084;16.958;2022-12-18T01:35:11;29.20;;;11.90;;
54599;SDS011;40500;51.084;16.958;2022-12-18T01:37:40;37.10;;;13.20;;
54599;SDS011;40500;51.084;16.958;2022-12-18T01:40:13;27.20;;;11.10;;
54599;SDS011;40500;51.084;16.958;2022-12-18T01:42:42;27.30;;;11.40;;
54599;SDS011;40500;51.084;16.958;2022-12-18T01:45:25;30.70;;;11.30;;
54599;SDS011;40500;51.084;16.958;2022-12-18T01:47:54;34.30;;;11.90;;
54599;SDS011;40500;51.084;16.958;2022-12-18T01:50:30;34.00;;;10.50;;
54599;SDS011;40500;51.084;16.958;2022-12-18T01:53:10;25.20;;;10.80;;
54599;SDS011;40500;51.084;16.958;2022-12-18T01:55:43;32.40;;;12.10;;
54599;SDS011;40500;51.084;16.958;2022-12-18T01:58:15;22.60;;;9.10;;
54599;SDS011;40500;51.084;16.958;2022-12-18T02:00:44;33.50;;;11.30;;
54599;SDS011;40500;51.084;16.958;2022-12-18T02:03:13;27.80;;;10.20;;
54599;SDS011;40500;51.084;16.958;2022-12-18T02:05:44;22.60;;;9.30;;
54599;SDS011;40500;51.084;16.958;2022-12-18T02:08:16;24.40;;;10.20;;
54599;SDS011;40500;51.084;16.958;2022-12-18T02:10:51;35.20;;;10.90;;
54599;SDS011;40500;51.084;16.958;2022-12-18T02:13:35;32.20;;;11.40;;
54599;SDS011;40500;51.084;16.958;2022-12-18T02:16:10;24.10;;;10.10;;
54599;SDS011;40500;51.084;16.958;2022-12-18T02:18:53;22.20;;;8.90;;
54599;SDS011;40500;51.084;16.958;2022-12-18T02:21:28;21.90;;;9.10;;
54599;SDS011;40500;51.084;16.958;2022-12-18T02:24:09;36.00;;;11.60;;
54599;SDS011;40500;51.084;16.958;2022-12-18T02:26:51;22.40;;;8.90;;
54599;SDS011;40500;51.084;16.958;2022-12-18T02:29:25;25.50;;;9.40;;
54599;SDS011;40500;51.084;16.958;2022-12-18T02:31:57;17.80;;;7.80;;
54599;SDS011;40500;51.084;16.958;2022-12-18T02:34:32;25.40;;;10.30;;
54599;SDS011;40500;51.084;16.958;2022-12-18T02:37:04;29.10;;;10.80;;
54599;SDS011;40500;51.084;16.958;2022-12-18T02:39:38;33.80;;;12.30;;
54599;SDS011;40500;51.084;16.958;2022-12-18T02:42:10;21.00;;;8.40;;
54599;SDS011;40500;51.084;16.958;2022-12-18T02:44:45;26.40;;;10.00;;
54599;SDS011;40500;51.084;16.958;2022-12-18T02:47:17;26.00;;;9.80;;
54599;SDS011;40500;51.084;16.958;2022-12-18T02:49:55;29.70;;;10.60;;
54599;SDS011;40500;51.084;16.958;2022-12-18T02:52:34;26.70;;;9.30;;
54599;SDS011;40500;51.084;16.958;2022-12-18T02:55:11;26.90;;;10.60;;
54599;SDS011;40500;51.084;16.958;2022-12-18T02:57:49;24.90;;;9.70;;
54599;SDS011;40500;51.084;16.958;2022-12-18T03:00:26;27.40;;;11.50;;
54599;SDS011;40500;51.084;16.958;2022-12-18T03:03:02;26.20;;;9.90;;
54599;SDS011;40500;51.084;16.958;2022-12-18T03:05:38;26.40;;;10.40;;
54599;SDS011;40500;51.084;16.958;2022-12-18T03:08:14;21.10;;;8.40;;
54599;SDS011;40500;51.084;16.958;2022-12-18T03:10:49;30.50;;;10.60;;
54599;SDS011;40500;51.084;16.958;2022-12-18T03:13:29;33.80;;;11.30;;
54599;SDS011;40500;51.084;16.958;2022-12-18T03:16:04;30.60;;;11.90;;
54599;SDS011;40500;51.084;16.958;2022-12-18T03:18:37;32.50;;;12.30;;
54599;SDS011;40500;51.084;16.958;2022-12-18T03:21:10;25.80;;;10.00;;
54599;SDS011;40500;51.084;16.958;2022-12-18T03:23:42;17.30;;;6.70;;
54599;SDS011;40500;51.084;16.958;2022-12-18T03:26:17;25.20;;;9.50;;
54599;SDS011;40500;51.084;16.958;2022-12-18T03:28:59;32.10;;;10.80;;
54599;SDS011;40500;51.084;16.958;2022-12-18T03:31:39;25.20;;;10.70;;
54599;SDS011;40500;51.084;16.958;2022-12-18T03:34:11;29.90;;;9.00;;
54599;SDS011;40500;51.084;16.958;2022-12-18T03:36:45;28.20;;;11.30;;
54599;SDS011;40500;51.084;16.958;2022-12-18T03:39:16;32.50;;;11.00;;
54599;SDS011;40500;51.084;16.958;2022-12-18T03:41:50;28.70;;;10.20;;
54599;SDS011;40500;51.084;16.958;2022-12-18T03:44:33;24.40;;;10.90;;
54599;SDS011;40500;51.084;16.958;2022-12-18T03:47:11;34.60;;;12.00;;
54599;SDS011;40500;51.084;16.958;2022-12-18T03:49:50;26.20;;;10.00;;
54599;SDS011;40500;51.084;16.958;2022-12-18T03:52:45;25.20;;;9.40;;
54599;SDS011;40500;51.084;16.958;2022-12-18T03:55:23;26.80;;;10.10;;
54599;SDS011;40500;51.084;16.958;2022-12-18T03:57:58;22.60;;;8.50;;
54599;SDS011;40500;51.084;16.958;2022-12-18T04:00:43;28.10;;;10.70;;
54599;SDS011;40500;51.084;16.958;2022-12-18T04:03:15;22.50;;;9.40;;
54599;SDS011;40500;51.084;16.958;2022-12-18T04:05:52;21.30;;;7.80;;
54599;SDS011;40500;51.084;16.958;2022-12-18T04:08:32;24.40;;;9.80;;
54599;SDS011;40500;51.084;16.958;2022-12-18T04:11:11;28.40;;;11.00;;
54599;SDS011;40500;51.084;16.958;2022-12-18T04:13:43;26.60;;;10.70;;
54599;SDS011;40500;51.084;16.958;2022-12-18T04:16:17;25.00;;;9.90;;
54599;SDS011;40500;51.084;16.958;2022-12-18T04:18:45;19.00;;;8.80;;
54599;SDS011;40500;51.084;16.958;2022-12-18T04:21:14;24.70;;;10.20;;
54599;SDS011;40500;51.084;16.958;2022-12-18T04:23:41;26.00;;;9.50;;
54599;SDS011;40500;51.084;16.958;2022-12-18T04:26:10;31.90;;;12.00;;
54599;SDS011;40500;51.084;16.958;2022-12-18T04:28:48;22.10;;;9.50;;
54599;SDS011;40500;51.084;16.958;2022-12-18T04:31:24;25.60;;;10.60;;
54599;SDS011;40500;51.084;16.958;2022-12-18T04:33:52;30.50;;;10.50;;
54599;SDS011;40500;51.084;16.958;2022-12-18T04:36:22;27.30;;;11.10;;
54599;SDS011;40500;51.084;16.958;2022-12-18T04:38:49;25.40;;;9.60;;
54599;SDS011;40500;51.084;16.958;2022-12-18T04:41:17;26.00;;;10.70;;
54599;SDS011;40500;51.084;16.958;2022-12-18T04:43:49;17.80;;;7.70;;
54599;SDS011;40500;51.084;16.958;2022-12-18T04:46:17;21.10;;;8.60;;
54599;SDS011;40500;51.084;16.958;2022-12-18T04:48:46;25.80;;;9.90;;
54599;SDS011;40500;51.084;16.958;2022-12-18T04:51:17;26.60;;;11.70;;
54599;SDS011;40500;51.084;16.958;2022-12-18T04:53:52;25.50;;;10.10;;
54599;SDS011;40500;51.084;16.958;2022-12-18T04:56:24;20.40;;;8.00;;
54599;SDS011;40500;51.084;16.958;2022-12-18T04:58:52;27.40;;;9.20;;
54599;SDS011;40500;51.084;16.958;2022-12-18T05:01:20;24.80;;;10.40;;
54599;SDS011;40500;51.084;16.958;2022-12-18T05:03:48;23.50;;;9.70;;
54599;SDS011;40500;51.084;16.958;2022-12-18T05:06:19;23.00;;;8.80;;
54599;SDS011;40500;51.084;16.958;2022-12-18T05:08:47;20.20;;;8.70;;
54599;SDS011;40500;51.084;16.958;2022-12-18T05:11:29;23.70;;;9.20;;
54599;SDS011;40500;51.084;16.958;2022-12-18T05:13:57;23.70;;;9.80;;
54599;SDS011;40500;51.084;16.958;2022-12-18T05:16:25;31.10;;;10.10;;
54599;SDS011;40500;51.084;16.958;2022-12-18T05:19:23;22.30;;;9.60;;
54599;SDS011;40500;51.084;16.958;2022-12-18T05:21:50;19.50;;;8.50;;
54599;SDS011;40500;51.084;16.958;2022-12-18T05:24:20;32.60;;;11.90;;
54599;SDS011;40500;51.084;16.958;2022-12-18T05:26:50;31.20;;;12.10;;
54599;SDS011;40500;51.084;16.958;2022-12-18T05:29:19;23.10;;;9.70;;
54599;SDS011;40500;51.084;16.958;2022-12-18T05:31:48;21.10;;;9.00;;
54599;SDS011;40500;51.084;16.958;2022-12-18T05:34:16;23.40;;;9.90;;
54599;SDS011;40500;51.084;16.958;2022-12-18T05:36:49;16.40;;;8.00;;
54599;SDS011;40500;51.084;16.958;2022-12-18T05:39:38;24.00;;;10.40;;
54599;SDS011;40500;51.084;16.958;2022-12-18T05:42:07;25.40;;;11.80;;
54599;SDS011;40500;51.084;16.958;2022-12-18T05:44:34;31.20;;;12.10;;
54599;SDS011;40500;51.084;16.958;2022-12-18T05:47:02;27.00;;;11.50;;
54599;SDS011;40500;51.084;16.958;2022-12-18T05:49:30;21.40;;;9.40;;
54599;SDS011;40500;51.084;16.958;2022-12-18T05:51:58;27.10;;;11.30;;
54599;SDS011;40500;51.084;16.958;2022-12-18T05:54:27;22.60;;;10.70;;
54599;SDS011;40500;51.084;16.958;2022-12-18T05:57:01;32.30;;;13.10;;
54599;SDS011;40500;51.084;16.958;2022-12-18T05:59:30;35.60;;;13.30;;
54599;SDS011;40500;51.084;16.958;2022-12-18T06:01:58;30.90;;;12.00;;
54599;SDS011;40500;51.084;16.958;2022-12-18T06:04:27;30.80;;;11.80;;
54599;SDS011;40500;51.084;16.958;2022-12-18T06:06:56;31.80;;;12.50;;
54599;SDS011;40500;51.084;16.958;2022-12-18T06:09:26;36.20;;;14.10;;
54599;SDS011;40500;51.084;16.958;2022-12-18T06:11:59;32.00;;;13.20;;
54599;SDS011;40500;51.084;16.958;2022-12-18T06:17:03;38.40;;;13.20;;
54599;SDS011;40500;51.084;16.958;2022-12-18T06:19:31;35.00;;;12.80;;
54599;SDS011;40500;51.084;16.958;2022-12-18T06:21:58;35.20;;;12.70;;
54599;SDS011;40500;51.084;16.958;2022-12-18T06:24:26;38.30;;;14.60;;
54599;SDS011;40500;51.084;16.958;2022-12-18T06:27:01;36.70;;;14.80;;
54599;SDS011;40500;51.084;16.958;2022-12-18T06:29:31;49.20;;;17.20;;
54599;SDS011;40500;51.084;16.958;2022-12-18T06:32:01;41.00;;;14.80;;
54599;SDS011;40500;51.084;16.958;2022-12-18T06:34:28;33.90;;;13.70;;
54599;SDS011;40500;51.084;16.958;2022-12-18T06:36:58;39.50;;;15.30;;
54599;SDS011;40500;51.084;16.958;2022-12-18T06:39:32;38.60;;;15.10;;
54599;SDS011;40500;51.084;16.958;2022-12-18T06:42:03;43.80;;;16.80;;
54599;SDS011;40500;51.084;16.958;2022-12-18T06:44:32;38.30;;;16.20;;
54599;SDS011;40500;51.084;16.958;2022-12-18T06:47:01;42.70;;;16.90;;
54599;SDS011;40500;51.084;16.958;2022-12-18T06:49:46;49.50;;;17.50;;
54599;SDS011;40500;51.084;16.958;2022-12-18T06:52:35;30.00;;;13.50;;
54599;SDS011;40500;51.084;16.958;2022-12-18T06:55:09;35.20;;;13.70;;
54599;SDS011;40500;51.084;16.958;2022-12-18T06:57:44;36.90;;;16.50;;
54599;SDS011;40500;51.084;16.958;2022-12-18T07:00:15;33.10;;;14.20;;
54599;SDS011;40500;51.084;16.958;2022-12-18T07:02:53;22.10;;;9.30;;
54599;SDS011;40500;51.084;16.958;2022-12-18T07:05:26;41.30;;;17.40;;
54599;SDS011;40500;51.084;16.958;2022-12-18T07:08:03;28.30;;;12.40;;
54599;SDS011;40500;51.084;16.958;2022-12-18T07:10:31;32.30;;;13.90;;
54599;SDS011;40500;51.084;16.958;2022-12-18T07:12:59;34.20;;;14.80;;
54599;SDS011;40500;51.084;16.958;2022-12-18T07:15:27;22.40;;;9.40;;
54599;SDS011;40500;51.084;16.958;2022-12-18T07:17:58;30.40;;;13.40;;
54599;SDS011;40500;51.084;16.958;2022-12-18T07:20:28;27.20;;;10.90;;
54599;SDS011;40500;51.084;16.958;2022-12-18T07:23:02;24.50;;;11.40;;
54599;SDS011;40500;51.084;16.958;2022-12-18T07:25:33;26.40;;;10.10;;
54599;SDS011;40500;51.084;16.958;2022-12-18T07:28:01;35.50;;;13.60;;
54599;SDS011;40500;51.084;16.958;2022-12-18T07:30:29;29.80;;;13.50;;
54599;SDS011;40500;51.084;16.958;2022-12-18T07:32:57;27.60;;;13.10;;
54599;SDS011;40500;51.084;16.958;2022-12-18T07:35:25;25.90;;;11.10;;
54599;SDS011;40500;51.084;16.958;2022-12-18T07:37:52;25.10;;;11.50;;
54599;SDS011;40500;51.084;16.958;2022-12-18T07:40:20;26.60;;;11.10;;
54599;SDS011;40500;51.084;16.958;2022-12-18T07:42:48;29.50;;;13.60;;
54599;SDS011;40500;51.084;16.958;2022-12-18T07:45:18;22.00;;;10.80;;
54599;SDS011;40500;51.084;16.958;2022-12-18T07:47:46;29.50;;;12.90;;
54599;SDS011;40500;51.084;16.958;2022-12-18T07:50:14;30.60;;;13.30;;
54599;SDS011;40500;51.084;16.958;2022-12-18T07:52:42;24.30;;;10.80;;
54599;SDS011;40500;51.084;16.958;2022-12-18T07:55:10;34.70;;;14.50;;
54599;SDS011;40500;51.084;16.958;2022-12-18T07:57:39;35.60;;;15.00;;
54599;SDS011;40500;51.084;16.958;2022-12-18T08:00:18;27.60;;;10.60;;
54599;SDS011;40500;51.084;16.958;2022-12-18T08:02:47;34.10;;;13.70;;
54599;SDS011;40500;51.084;16.958;2022-12-18T08:05:15;36.00;;;15.70;;
54599;SDS011;40500;51.084;16.958;2022-12-18T08:07:43;31.10;;;14.60;;
54599;SDS011;40500;51.084;16.958;2022-12-18T08:10:11;38.20;;;15.30;;
54599;SDS011;40500;51.084;16.958;2022-12-18T08:12:39;33.40;;;15.00;;
54599;SDS011;40500;51.084;16.958;2022-12-18T08:15:07;25.10;;;13.30;;
54599;SDS011;40500;51.084;16.958;2022-12-18T08:17:35;25.30;;;12.00;;
54599;SDS011;40500;51.084;16.958;2022-12-18T08:20:08;30.90;;;13.40;;
54599;SDS011;40500;51.084;16.958;2022-12-18T08:22:38;32.50;;;13.20;;
54599;SDS011;40500;51.084;16.958;2022-12-18T08:25:07;38.30;;;14.00;;
54599;SDS011;40500;51.084;16.958;2022-12-18T08:27:35;32.70;;;13.80;;
54599;SDS011;40500;51.084;16.958;2022-12-18T08:30:06;39.60;;;16.80;;
54599;SDS011;40500;51.084;16.958;2022-12-18T08:32:35;21.80;;;10.00;;
54599;SDS011;40500;51.084;16.958;2022-12-18T08:35:03;30.70;;;13.20;;
54599;SDS011;40500;51.084;16.958;2022-12-18T08:37:32;29.70;;;12.60;;
54599;SDS011;40500;51.084;16.958;2022-12-18T08:40:00;26.20;;;12.10;;
54599;SDS011;40500;51.084;16.958;2022-12-18T08:42:27;31.60;;;13.30;;
54599;SDS011;40500;51.084;16.958;2022-12-18T08:45:14;33.50;;;15.00;;
54599;SDS011;40500;51.084;16.958;2022-12-18T08:47:43;35.50;;;14.10;;
54599;SDS011;40500;51.084;16.958;2022-12-18T08:50:12;25.90;;;11.10;;
54599;SDS011;40500;51.084;16.958;2022-12-18T08:52:40;37.30;;;13.80;;
54599;SDS011;40500;51.084;16.958;2022-12-18T08:55:09;35.60;;;15.60;;
54599;SDS011;40500;51.084;16.958;2022-12-18T08:57:39;27.00;;;13.90;;
54599;SDS011;40500;51.084;16.958;2022-12-18T09:00:08;35.60;;;15.70;;
54599;SDS011;40500;51.084;16.958;2022-12-18T09:02:40;33.90;;;15.30;;
54599;SDS011;40500;51.084;16.958;2022-12-18T09:05:09;30.50;;;12.80;;
54599;SDS011;40500;51.084;16.958;2022-12-18T09:07:36;34.20;;;15.10;;
54599;SDS011;40500;51.084;16.958;2022-12-18T09:10:07;29.60;;;14.40;;
54599;SDS011;40500;51.084;16.958;2022-12-18T09:12:35;35.50;;;14.80;;
54599;SDS011;40500;51.084;16.958;2022-12-18T09:15:03;28.40;;;11.20;;
54599;SDS011;40500;51.084;16.958;2022-12-18T09:17:33;28.20;;;12.50;;
54599;SDS011;40500;51.084;16.958;2022-12-18T09:20:01;35.60;;;15.50;;
54599;SDS011;40500;51.084;16.958;2022-12-18T09:22:29;27.00;;;12.70;;
54599;SDS011;40500;51.084;16.958;2022-12-18T09:24:57;24.50;;;10.70;;
54599;SDS011;40500;51.084;16.958;2022-12-18T09:27:25;28.70;;;12.40;;
54599;SDS011;40500;51.084;16.958;2022-12-18T09:29:53;27.00;;;11.60;;
54599;SDS011;40500;51.084;16.958;2022-12-18T09:32:22;34.00;;;15.20;;
54599;SDS011;40500;51.084;16.958;2022-12-18T09:34:50;35.40;;;14.60;;
54599;SDS011;40500;51.084;16.958;2022-12-18T09:37:19;36.60;;;15.90;;
54599;SDS011;40500;51.084;16.958;2022-12-18T09:39:47;28.70;;;14.20;;
54599;SDS011;40500;51.084;16.958;2022-12-18T09:42:16;29.10;;;13.20;;
54599;SDS011;40500;51.084;16.958;2022-12-18T09:44:55;23.70;;;11.70;;
54599;SDS011;40500;51.084;16.958;2022-12-18T09:47:24;29.50;;;12.40;;
54599;SDS011;40500;51.084;16.958;2022-12-18T09:49:56;33.60;;;15.50;;
54599;SDS011;40500;51.084;16.958;2022-12-18T09:52:33;23.70;;;11.60;;
54599;SDS011;40500;51.084;16.958;2022-12-18T09:55:09;41.30;;;16.90;;
54599;SDS011;40500;51.084;16.958;2022-12-18T09:57:47;34.40;;;15.90;;
54599;SDS011;40500;51.084;16.958;2022-12-18T10:00:19;34.60;;;15.00;;
54599;SDS011;40500;51.084;16.958;2022-12-18T10:02:50;29.50;;;13.90;;
54599;SDS011;40500;51.084;16.958;2022-12-18T10:05:27;40.10;;;17.60;;
54599;SDS011;40500;51.084;16.958;2022-12-18T10:08:09;38.20;;;16.10;;
54599;SDS011;40500;51.084;16.958;2022-12-18T10:10:46;33.50;;;13.50;;
54599;SDS011;40500;51.084;16.958;2022-12-18T10:13:21;30.60;;;14.10;;
54599;SDS011;40500;51.084;16.958;2022-12-18T10:16:00;33.30;;;14.20;;
54599;SDS011;40500;51.084;16.958;2022-12-18T10:18:45;42.40;;;18.00;;
54599;SDS011;40500;51.084;16.958;2022-12-18T10:21:26;34.00;;;15.10;;
54599;SDS011;40500;51.084;16.958;2022-12-18T10:24:00;35.60;;;13.00;;
54599;SDS011;40500;51.084;16.958;2022-12-18T10:26:40;35.00;;;15.30;;
54599;SDS011;40500;51.084;16.958;2022-12-18T10:29:11;32.20;;;13.00;;
54599;SDS011;40500;51.084;16.958;2022-12-18T10:31:40;24.10;;;11.60;;
54599;SDS011;40500;51.084;16.958;2022-12-18T10:34:11;30.80;;;13.30;;
54599;SDS011;40500;51.084;16.958;2022-12-18T10:36:39;45.30;;;18.90;;
54599;SDS011;40500;51.084;16.958;2022-12-18T10:39:16;40.30;;;16.10;;
54599;SDS011;40500;51.084;16.958;2022-12-18T10:41:45;33.80;;;14.40;;
54599;SDS011;40500;51.084;16.958;2022-12-18T10:44:18;35.60;;;13.90;;
54599;SDS011;40500;51.084;16.958;2022-12-18T10:46:47;37.30;;;14.40;;
54599;SDS011;40500;51.084;16.958;2022-12-18T10:49:21;49.40;;;18.40;;
54599;SDS011;40500;51.084;16.958;2022-12-18T10:52:11;33.30;;;14.60;;
54599;SDS011;40500;51.084;16.958;2022-12-18T10:54:49;37.50;;;15.40;;
54599;SDS011;40500;51.084;16.958;2022-12-18T10:57:30;37.90;;;14.00;;
54599;SDS011;40500;51.084;16.958;2022-12-18T11:00:19;34.90;;;13.90;;
54599;SDS011;40500;51.084;16.958;2022-12-18T11:02:50;41.20;;;15.30;;
54599;SDS011;40500;51.084;16.958;2022-12-18T11:05:26;46.10;;;17.60;;
54599;SDS011;40500;51.084;16.958;2022-12-18T11:07:56;33.30;;;13.70;;
54599;SDS011;40500;51.084;16.958;2022-12-18T11:10:28;47.80;;;18.30;;
54599;SDS011;40500;51.084;16.958;2022-12-18T11:13:09;45.40;;;16.60;;
54599;SDS011;40500;51.084;16.958;2022-12-18T11:15:42;35.90;;;13.30;;
54599;SDS011;40500;51.084;16.958;2022-12-18T11:18:16;50.30;;;19.10;;
54599;SDS011;40500;51.084;16.958;2022-12-18T11:20:52;35.00;;;13.80;;
54599;SDS011;40500;51.084;16.958;2022-12-18T11:23:25;33.30;;;12.00;;
54599;SDS011;40500;51.084;16.958;2022-12-18T11:25:54;38.20;;;16.00;;
54599;SDS011;40500;51.084;16.958;2022-12-18T11:28:28;21.10;;;10.30;;
54599;SDS011;40500;51.084;16.958;2022-12-18T11:31:09;35.10;;;15.20;;
54599;SDS011;40500;51.084;16.958;2022-12-18T11:33:49;27.80;;;12.10;;
54599;SDS011;40500;51.084;16.958;2022-12-18T11:36:43;29.70;;;13.00;;
54599;SDS011;40500;51.084;16.958;2022-12-18T11:39:14;36.20;;;15.00;;
54599;SDS011;40500;51.084;16.958;2022-12-18T11:41:50;26.50;;;12.00;;
54599;SDS011;40500;51.084;16.958;2022-12-18T11:44:43;27.60;;;11.90;;
54599;SDS011;40500;51.084;16.958;2022-12-18T11:49:48;28.50;;;11.40;;
54599;SDS011;40500;51.084;16.958;2022-12-18T11:52:19;26.40;;;12.30;;
54599;SDS011;40500;51.084;16.958;2022-12-18T11:54:51;35.70;;;13.70;;
54599;SDS011;40500;51.084;16.958;2022-12-18T11:57:23;28.30;;;11.10;;
54599;SDS011;40500;51.084;16.958;2022-12-18T12:00:02;29.20;;;12.00;;
54599;SDS011;40500;51.084;16.958;2022-12-18T12:02:48;35.40;;;14.40;;
54599;SDS011;40500;51.084;16.958;2022-12-18T12:05:51;29.20;;;12.20;;
54599;SDS011;40500;51.084;16.958;2022-12-18T12:08:31;36.20;;;15.10;;
54599;SDS011;40500;51.084;16.958;2022-12-18T12:11:10;35.50;;;13.20;;
54599;SDS011;40500;51.084;16.958;2022-12-18T12:13:49;38.60;;;15.00;;
54599;SDS011;40500;51.084;16.958;2022-12-18T12:16:27;36.70;;;13.20;;
54599;SDS011;40500;51.084;16.958;2022-12-18T12:19:06;37.90;;;14.80;;
54599;SDS011;40500;51.084;16.958;2022-12-18T12:21:51;36.80;;;13.70;;
54599;SDS011;40500;51.084;16.958;2022-12-18T12:24:29;36.80;;;16.10;;
54599;SDS011;40500;51.084;16.958;2022-12-18T12:27:06;38.80;;;16.50;;
54599;SDS011;40500;51.084;16.958;2022-12-18T12:29:46;33.80;;;15.50;;
54599;SDS011;40500;51.084;16.958;2022-12-18T12:32:28;38.80;;;15.70;;
54599;SDS011;40500;51.084;16.958;2022-12-18T12:35:14;47.00;;;17.70;;
54599;SDS011;40500;51.084;16.958;2022-12-18T12:37:54;30.80;;;12.30;;
54599;SDS011;40500;51.084;16.958;2022-12-18T12:40:31;43.50;;;14.70;;
54599;SDS011;40500;51.084;16.958;2022-12-18T12:43:28;45.40;;;16.80;;
54599;SDS011;40500;51.084;16.958;2022-12-18T12:46:08;39.10;;;17.00;;
54599;SDS011;40500;51.084;16.958;2022-12-18T12:48:41;42.20;;;17.70;;
54599;SDS011;40500;51.084;16.958;2022-12-18T12:51:15;44.60;;;16.10;;
54599;SDS011;40500;51.084;16.958;2022-12-18T12:53:46;41.20;;;17.00;;
54599;SDS011;40500;51.084;16.958;2022-12-18T12:56:15;44.30;;;16.80;;
54599;SDS011;40500;51.084;16.958;2022-12-18T12:58:51;39.80;;;15.60;;
54599;SDS011;40500;51.084;16.958;2022-12-18T13:01:28;44.10;;;17.00;;
54599;SDS011;40500;51.084;16.958;2022-12-18T13:04:08;35.90;;;15.70;;
54599;SDS011;40500;51.084;16.958;2022-12-18T13:06:49;39.20;;;16.70;;
54599;SDS011;40500;51.084;16.958;2022-12-18T13:09:23;36.60;;;13.60;;
54599;SDS011;40500;51.084;16.958;2022-12-18T13:11:51;40.00;;;14.50;;
54599;SDS011;40500;51.084;16.958;2022-12-18T13:14:37;47.50;;;17.70;;
54599;SDS011;40500;51.084;16.958;2022-12-18T13:20:08;52.00;;;19.80;;
54599;SDS011;40500;51.084;16.958;2022-12-18T13:22:42;45.40;;;16.30;;
54599;SDS011;40500;51.084;16.958;2022-12-18T13:25:31;55.70;;;20.00;;
54599;SDS011;40500;51.084;16.958;2022-12-18T13:28:10;43.90;;;16.40;;
54599;SDS011;40500;51.084;16.958;2022-12-18T13:30:53;43.00;;;16.60;;
54599;SDS011;40500;51.084;16.958;2022-12-18T13:36:35;51.10;;;19.30;;
54599;SDS011;40500;51.084;16.958;2022-12-18T13:39:10;35.30;;;14.20;;
54599;SDS011;40500;51.084;16.958;2022-12-18T13:45:41;38.90;;;14.60;;
54599;SDS011;40500;51.084;16.958;2022-12-18T13:48:20;51.30;;;16.60;;
54599;SDS011;40500;51.084;16.958;2022-12-18T13:50:53;36.60;;;13.90;;
54599;SDS011;40500;51.084;16.958;2022-12-18T13:53:27;44.70;;;17.10;;
54599;SDS011;40500;51.084;16.958;2022-12-18T13:55:57;45.20;;;17.90;;
54599;SDS011;40500;51.084;16.958;2022-12-18T13:58:26;48.90;;;18.40;;
54599;SDS011;40500;51.084;16.958;2022-12-18T14:00:54;39.00;;;15.60;;
54599;SDS011;40500;51.084;16.958;2022-12-18T14:03:23;44.70;;;16.50;;
54599;SDS011;40500;51.084;16.958;2022-12-18T14:05:54;49.20;;;17.00;;
54599;SDS011;40500;51.084;16.958;2022-12-18T14:08:25;40.70;;;15.40;;
54599;SDS011;40500;51.084;16.958;2022-12-18T14:10:58;48.80;;;17.70;;
54599;SDS011;40500;51.084;16.958;2022-12-18T14:13:30;42.70;;;18.20;;
54599;SDS011;40500;51.084;16.958;2022-12-18T14:16:01;41.10;;;14.50;;
54599;SDS011;40500;51.084;16.958;2022-12-18T14:18:32;50.60;;;17.80;;
54599;SDS011;40500;51.084;16.958;2022-12-18T14:21:18;47.60;;;17.90;;
54599;SDS011;40500;51.084;16.958;2022-12-18T14:24:04;48.80;;;18.70;;
54599;SDS011;40500;51.084;16.958;2022-12-18T14:26:40;40.00;;;17.00;;
54599;SDS011;40500;51.084;16.958;2022-12-18T14:29:19;43.30;;;16.10;;
54599;SDS011;40500;51.084;16.958;2022-12-18T14:34:49;26.50;;;12.20;;
54599;SDS011;40500;51.084;16.958;2022-12-18T14:37:20;49.50;;;18.40;;
54599;SDS011;40500;51.084;16.958;2022-12-18T14:39:57;39.70;;;15.70;;
54599;SDS011;40500;51.084;16.958;2022-12-18T14:42:35;33.70;;;13.90;;
54599;SDS011;40500;51.084;16.958;2022-12-18T14:48:14;38.10;;;15.10;;
54599;SDS011;40500;51.084;16.958;2022-12-18T14:51:00;55.70;;;20.20;;
54599;SDS011;40500;51.084;16.958;2022-12-18T14:53:36;41.50;;;13.90;;
54599;SDS011;40500;51.084;16.958;2022-12-18T14:56:14;38.50;;;14.20;;
54599;SDS011;40500;51.084;16.958;2022-12-18T14:58:50;48.90;;;19.40;;
54599;SDS011;40500;51.084;16.958;2022-12-18T15:01:23;48.30;;;18.20;;
54599;SDS011;40500;51.084;16.958;2022-12-18T15:03:54;52.70;;;18.80;;
54599;SDS011;40500;51.084;16.958;2022-12-18T15:06:31;48.60;;;17.40;;
54599;SDS011;40500;51.084;16.958;2022-12-18T15:09:01;47.30;;;17.50;;